Time;durP1;ratioP1;P1;durP2;ratioP2;P2;SDS_P1;SDS_P2;PMS_P1;PMS_P2;Temp;Humidity;BMP_temperature;BMP_pressure;BME280_temperature;BME280_humidity;BME280_pressure;Samples;Min_cycle;Max_cycle;Signal;HPM_P1;HPM_P2
2023/07/27 00:02:00;;;;;;;1.40;1.30;;;17.10;99.90;;;17.45;nan;100374.22;5008503;28;20637;-64
2023/07/27 00:04:28;;;;;;;2.43;1.60;;;17.10;99.90;;;17.45;nan;100368.94;4986107;28;20631;-65
2023/07/27 00:06:55;;;;;;;1.80;1.60;;;17.00;99.90;;;17.44;nan;100365.47;4990973;28;20670;-65
2023/07/27 00:09:22;;;;;;;4.00;1.07;;;17.00;99.90;;;17.46;nan;100370.63;4996156;28;20642;-64
2023/07/27 00:11:49;;;;;;;1.00;1.00;;;17.10;99.90;;;17.44;nan;100356.75;5007782;28;20676;-65
2023/07/27 00:14:16;;;;;;;1.17;1.17;;;17.00;99.90;;;17.42;nan;100364.81;5003584;28;20638;-65
2023/07/27 00:16:43;;;;;;;1.47;1.47;;;17.00;99.90;;;17.40;nan;100363.34;5008659;28;20665;-64
2023/07/27 00:19:10;;;;;;;1.50;1.33;;;17.00;99.90;;;17.38;nan;100352.09;4997371;28;21212;-63
2023/07/27 00:21:37;;;;;;;1.70;1.60;;;17.00;99.90;;;17.42;nan;100361.38;4995600;28;20638;-66
2023/07/27 00:24:04;;;;;;;1.10;1.10;;;17.00;99.90;;;17.41;nan;100357.06;5007429;28;20653;-64
2023/07/27 00:26:31;;;;;;;1.80;1.30;;;17.00;99.90;;;17.39;nan;100356.41;5006204;28;20730;-64
2023/07/27 00:28:59;;;;;;;1.33;1.33;;;17.00;99.90;;;17.35;nan;100355.06;5008876;28;20704;-66
2023/07/27 00:31:26;;;;;;;1.10;1.10;;;17.00;99.90;;;17.34;nan;100350.78;5000371;28;21247;-65
2023/07/27 00:33:53;;;;;;;2.03;1.83;;;16.90;99.90;;;17.32;nan;100347.47;5007139;28;21036;-64
2023/07/27 00:36:20;;;;;;;1.50;1.40;;;16.90;99.90;;;17.30;nan;100352.09;5006389;28;20684;-64
2023/07/27 00:38:47;;;;;;;0.67;0.67;;;16.90;99.90;;;17.28;nan;100340.88;5000764;28;20646;-64
2023/07/27 00:41:13;;;;;;;1.97;1.80;;;16.90;99.90;;;17.29;nan;100345.97;4992217;28;20642;-65
2023/07/27 00:43:40;;;;;;;1.70;1.57;;;16.90;99.90;;;17.28;nan;100343.50;5005482;28;20639;-64
2023/07/27 00:46:07;;;;;;;1.27;1.27;;;16.90;99.90;;;17.31;nan;100345.84;4994214;28;20674;-62
2023/07/27 00:48:35;;;;;;;1.60;1.50;;;16.90;99.90;;;17.32;nan;100342.19;5000201;28;21178;-64
2023/07/27 00:51:02;;;;;;;1.50;1.40;;;17.00;99.90;;;17.30;nan;100344.19;5007946;28;20689;-64
2023/07/27 00:53:29;;;;;;;1.67;1.57;;;16.90;99.90;;;17.28;nan;100336.44;4992803;28;20634;-64
2023/07/27 00:55:58;;;;;;;1.90;1.37;;;16.90;99.90;;;17.27;nan;100328.69;5005924;28;21026;-64
2023/07/27 00:58:25;;;;;;;4.03;1.40;;;16.90;99.90;;;17.22;nan;100325.69;5009341;28;20637;-65
2023/07/27 01:00:52;;;;;;;1.30;1.20;;;16.90;99.90;;;17.18;nan;100327.84;5010076;28;20648;-64
2023/07/27 01:03:19;;;;;;;2.10;1.40;;;16.80;99.90;;;17.15;nan;100322.88;5006546;28;20653;-65
2023/07/27 01:05:48;;;;;;;2.60;1.37;;;16.80;99.90;;;17.12;nan;100317.94;4982816;28;20662;-64
2023/07/27 01:08:15;;;;;;;1.40;1.30;;;16.70;99.90;;;17.12;nan;100320.56;4987745;28;20638;-64
2023/07/27 01:11:09;;;;;;;1.53;1.43;;;16.70;99.90;;;17.13;nan;100314.28;4988826;28;20701;-65
2023/07/27 01:14:28;;;;;;;1.53;1.43;;;16.80;99.90;;;17.12;nan;100315.31;4990177;28;20640;-64
2023/07/27 01:17:08;;;;;;;1.40;1.30;;;16.80;99.90;;;17.14;nan;100301.94;4967748;28;20768;-66
2023/07/27 01:20:00;;;;;;;1.27;1.27;;;16.80;99.90;;;17.11;nan;100300.44;4990668;28;21195;-65
2023/07/27 01:22:37;;;;;;;1.60;1.50;;;16.80;99.90;;;17.13;nan;100297.66;4990948;28;20692;-64
2023/07/27 01:25:31;;;;;;;1.80;1.70;;;16.80;99.90;;;17.11;nan;100296.97;5003368;28;20652;-65
2023/07/27 01:28:37;;;;;;;1.53;1.43;;;16.80;99.90;;;17.09;nan;100294.53;4996734;28;21010;-63
2023/07/27 01:31:12;;;;;;;1.63;1.53;;;16.80;99.90;;;17.08;nan;100290.22;4984883;28;20685;-66
2023/07/27 01:33:45;;;;;;;1.00;1.00;;;16.70;99.90;;;17.10;nan;100290.88;4992637;28;20641;-64
2023/07/27 01:36:38;;;;;;;1.27;1.27;;;16.70;99.90;;;17.04;nan;100287.09;4992717;28;20670;-65
2023/07/27 01:39:09;;;;;;;1.30;1.20;;;16.70;99.90;;;17.02;nan;100278.50;4984666;28;20635;-65
2023/07/27 01:41:41;;;;;;;1.57;1.50;;;16.70;99.90;;;17.04;nan;100278.34;4990446;28;20633;-65
2023/07/27 01:44:09;;;;;;;1.30;1.20;;;16.70;99.90;;;17.09;nan;100283.97;4988741;28;20653;-65
2023/07/27 01:46:39;;;;;;;1.30;1.20;;;16.70;99.90;;;17.08;nan;100276.25;5000348;28;20669;-65
2023/07/27 01:49:07;;;;;;;1.20;1.10;;;16.80;99.90;;;17.12;nan;100280.19;5002716;28;20633;-65
2023/07/27 01:51:35;;;;;;;1.43;1.40;;;16.80;99.90;;;17.11;nan;100276.72;5008949;28;20669;-64
2023/07/27 01:54:03;;;;;;;2.03;1.57;;;16.80;99.90;;;17.11;nan;100262.72;4992130;28;20803;-65
2023/07/27 01:56:31;;;;;;;1.53;1.40;;;16.70;99.90;;;17.10;nan;100264.53;4989973;28;20658;-66
2023/07/27 01:59:00;;;;;;;1.00;0.97;;;16.80;99.90;;;17.06;nan;100256.13;4989173;28;21307;-62
2023/07/27 02:01:28;;;;;;;1.50;1.40;;;16.70;99.90;;;17.08;nan;100249.88;4992691;28;20649;-64
2023/07/27 02:03:56;;;;;;;1.90;1.80;;;16.70;99.90;;;17.04;nan;100244.91;4997364;28;20630;-64
2023/07/27 02:06:23;;;;;;;1.30;1.20;;;16.70;99.90;;;17.04;nan;100241.44;5013042;28;21050;-64
2023/07/27 02:08:50;;;;;;;1.53;1.43;;;16.70;99.90;;;17.05;nan;100241.31;4985469;28;20666;-64
2023/07/27 02:11:19;;;;;;;1.33;1.30;;;16.70;99.90;;;17.01;nan;100234.69;4988519;28;21259;-64
2023/07/27 02:14:21;;;;;;;1.90;1.67;;;16.70;99.90;;;16.98;nan;100236.81;4994574;28;21221;-64
2023/07/27 02:16:57;;;;;;;1.13;1.10;;;16.60;99.90;;;16.99;nan;100230.59;4991345;28;20665;-64
2023/07/27 02:19:32;;;;;;;1.70;1.60;;;16.60;99.90;;;16.98;nan;100226.28;5009278;28;20651;-64
2023/07/27 02:22:02;;;;;;;1.30;1.30;;;16.60;99.90;;;16.99;nan;100231.38;5006782;28;20625;-63
2023/07/27 02:24:30;;;;;;;1.90;1.70;;;16.60;99.90;;;17.01;nan;100229.41;5000535;28;20635;-64
2023/07/27 02:26:57;;;;;;;2.30;1.23;;;16.70;99.90;;;17.01;nan;100218.88;4993635;28;20667;-64
2023/07/27 02:29:24;;;;;;;2.03;1.20;;;16.60;99.90;;;17.02;nan;100211.78;4995389;28;21018;-65
2023/07/27 02:31:51;;;;;;;1.90;1.10;;;16.70;99.90;;;17.04;nan;100210.66;4990368;28;20752;-65
2023/07/27 02:34:19;;;;;;;1.17;1.17;;;16.70;99.90;;;17.00;nan;100209.31;4997484;28;21226;-65
2023/07/27 02:36:46;;;;;;;1.10;1.10;;;16.70;99.90;;;16.98;nan;100205.19;5002213;28;21028;-65
2023/07/27 02:39:13;;;;;;;5.23;1.70;;;16.60;99.90;;;16.96;nan;100201.91;4995354;28;20645;-65
2023/07/27 02:41:40;;;;;;;1.20;1.13;;;16.60;99.90;;;16.98;nan;100211.28;4979365;28;20643;-65
2023/07/27 02:44:07;;;;;;;1.17;1.17;;;16.60;99.90;;;17.02;nan;100209.16;4991167;28;20653;-64
2023/07/27 02:46:34;;;;;;;1.40;1.30;;;16.70;99.90;;;17.02;nan;100212.63;4986628;28;20662;-63
2023/07/27 02:49:02;;;;;;;1.63;1.53;;;16.70;99.90;;;17.05;nan;100217.59;4986909;28;20639;-64
2023/07/27 02:51:28;;;;;;;1.60;1.50;;;16.70;99.90;;;17.08;nan;100212.97;4996057;28;21017;-65
2023/07/27 02:53:55;;;;;;;1.43;1.33;;;16.70;99.90;;;17.08;nan;100213.78;4993322;28;20657;-64
2023/07/27 02:56:24;;;;;;;1.20;1.13;;;16.70;99.90;;;17.07;nan;100217.41;5001320;28;20669;-65
2023/07/27 02:58:51;;;;;;;1.30;1.20;;;16.70;99.90;;;17.08;nan;100212.97;5008531;28;20626;-64
2023/07/27 03:01:18;;;;;;;1.50;1.40;;;16.70;99.90;;;17.11;nan;100217.91;5004412;28;20646;-65
2023/07/27 03:03:45;;;;;;;1.20;1.20;;;16.70;99.90;;;17.11;nan;100213.47;5008691;28;20637;-65
2023/07/27 03:06:12;;;;;;;1.40;1.40;;;16.70;99.90;;;17.10;nan;100218.91;5004926;28;20743;-65
2023/07/27 03:08:39;;;;;;;1.27;1.20;;;16.80;99.90;;;17.14;nan;100212.31;4995448;28;20634;-64
2023/07/27 03:11:06;;;;;;;1.30;1.20;;;16.80;99.90;;;17.14;nan;100207.88;4999209;28;20677;-65
2023/07/27 03:13:33;;;;;;;1.57;1.23;;;16.80;99.90;;;17.11;nan;100202.91;4993001;28;20644;-64
2023/07/27 03:16:04;;;;;;;0.93;0.93;;;16.80;99.90;;;17.10;nan;100205.72;5009256;28;20661;-64
2023/07/27 03:18:31;;;;;;;1.70;1.50;;;16.70;99.90;;;17.11;nan;100212.63;5012662;28;20629;-64
2023/07/27 03:21:03;;;;;;;1.17;1.17;;;16.80;99.90;;;17.05;nan;100204.41;5003380;28;20641;-64
2023/07/27 03:23:30;;;;;;;1.03;1.03;;;16.70;99.90;;;17.08;nan;100199.78;5001065;28;20642;-65
2023/07/27 03:25:57;;;;;;;1.20;1.10;;;16.70;99.90;;;17.08;nan;100197.16;4993588;28;21237;-64
2023/07/27 03:28:24;;;;;;;1.63;1.53;;;16.70;99.90;;;17.08;nan;100201.44;5011666;28;20637;-64
2023/07/27 03:30:51;;;;;;;1.13;1.13;;;16.70;99.90;;;17.08;nan;100197.97;5008609;28;20677;-64
2023/07/27 03:33:18;;;;;;;1.50;1.37;;;16.70;99.90;;;17.05;nan;100203.56;5010291;28;20664;-65
2023/07/27 03:35:45;;;;;;;1.00;1.00;;;16.70;99.90;;;17.00;nan;100193.50;4995077;28;21015;-64
2023/07/27 03:38:12;;;;;;;1.47;1.47;;;16.70;99.90;;;16.99;nan;100194.47;4993142;28;20643;-65
2023/07/27 03:40:39;;;;;;;1.20;1.20;;;16.60;99.90;;;17.01;nan;100192.50;4985476;28;20641;-65
2023/07/27 03:43:06;;;;;;;1.60;1.50;;;16.70;99.90;;;17.00;nan;100195.31;5001963;28;20641;-64
2023/07/27 03:45:33;;;;;;;1.20;1.10;;;16.60;99.90;;;17.00;nan;100180.34;5000354;28;21233;-65
2023/07/27 03:48:00;;;;;;;1.67;1.57;;;16.70;99.90;;;16.98;nan;100192.03;5006342;28;20633;-64
2023/07/27 03:50:27;;;;;;;1.10;1.10;;;16.60;99.90;;;16.96;nan;100183.44;5010103;28;20648;-64
2023/07/27 03:52:56;;;;;;;1.17;1.10;;;16.60;99.90;;;16.95;nan;100182.63;5007277;28;20645;-65
2023/07/27 03:55:23;;;;;;;1.50;1.40;;;16.60;99.90;;;16.96;nan;100181.66;5004494;28;20649;-65
2023/07/27 03:57:50;;;;;;;1.60;1.50;;;16.60;99.90;;;16.97;nan;100185.13;4998586;28;20641;-65
2023/07/27 04:00:17;;;;;;;1.43;1.33;;;16.60;99.90;;;16.97;nan;100177.22;5004199;28;20720;-65
2023/07/27 04:02:44;;;;;;;1.13;1.13;;;16.60;99.90;;;16.99;nan;100172.59;5012224;28;20641;-64
2023/07/27 04:05:11;;;;;;;1.20;1.10;;;16.60;99.90;;;17.00;nan;100174.22;5000987;28;20718;-64
2023/07/27 04:07:38;;;;;;;1.47;1.13;;;16.70;99.90;;;16.96;nan;100168.47;4996064;28;20645;-64
2023/07/27 04:10:05;;;;;;;1.37;1.33;;;16.60;99.90;;;16.89;nan;100172.72;5000158;28;20649;-65
2023/07/27 04:12:33;;;;;;;1.17;1.17;;;16.60;99.90;;;16.89;nan;100172.72;4994102;28;20658;-65
2023/07/27 04:15:00;;;;;;;1.57;1.47;;;16.50;99.90;;;16.91;nan;100164.66;5009236;28;20629;-64
2023/07/27 04:17:27;;;;;;;9.50;1.20;;;16.50;99.90;;;16.93;nan;100158.25;5010921;28;20665;-65
2023/07/27 04:19:54;;;;;;;1.47;1.37;;;16.60;99.90;;;16.94;nan;100159.91;5011679;28;20648;-65
2023/07/27 04:22:21;;;;;;;1.37;1.30;;;16.60;99.90;;;16.95;nan;100160.72;5011748;28;21284;-65
2023/07/27 04:24:49;;;;;;;2.00;1.63;;;16.60;99.90;;;16.91;nan;100160.22;5010817;28;20637;-64
2023/07/27 04:27:16;;;;;;;2.60;1.90;;;16.60;99.90;;;16.96;nan;100162.38;5004603;28;20674;-65
2023/07/27 04:29:43;;;;;;;1.07;1.00;;;16.60;99.90;;;16.95;nan;100166.81;4988201;28;21253;-65
2023/07/27 04:32:10;;;;;;;1.20;1.20;;;16.60;99.90;;;16.98;nan;100161.22;5010582;28;20672;-65
2023/07/27 04:34:37;;;;;;;1.20;1.10;;;16.70;99.90;;;16.97;nan;100164.84;5002754;28;21085;-65
2023/07/27 04:37:05;;;;;;;1.37;1.27;;;16.60;99.90;;;16.99;nan;100162.84;5002117;28;20658;-65
2023/07/27 04:39:31;;;;;;;1.10;1.03;;;16.60;99.90;;;16.97;nan;100164.84;5002832;28;20646;-64
2023/07/27 04:41:58;;;;;;;1.40;1.30;;;16.60;99.90;;;16.94;nan;100154.63;4985189;28;20648;-65
2023/07/27 04:44:26;;;;;;;1.60;1.50;;;16.60;99.90;;;16.98;nan;100161.22;4991130;28;21234;-65
2023/07/27 04:46:53;;;;;;;1.20;1.20;;;16.60;99.90;;;17.02;nan;100167.81;4992539;28;20697;-65
2023/07/27 04:49:20;;;;;;;1.30;1.17;;;16.70;99.90;;;17.08;nan;100170.81;4994409;28;20649;-65
2023/07/27 04:51:47;;;;;;;1.27;1.17;;;16.70;99.90;;;17.08;nan;100165.53;5010151;28;21448;-64
2023/07/27 04:54:14;;;;;;;0.97;0.97;;;16.70;99.90;;;17.06;nan;100163.88;4997566;28;20638;-63
2023/07/27 04:56:41;;;;;;;1.43;1.27;;;16.70;99.90;;;17.06;nan;100169.13;5011238;28;20653;-65
2023/07/27 04:59:08;;;;;;;1.17;1.17;;;16.70;99.90;;;17.04;nan;100160.56;5003754;28;20642;-65
2023/07/27 05:01:35;;;;;;;2.17;1.60;;;16.70;99.90;;;17.04;nan;100165.00;5000850;28;20703;-65
2023/07/27 05:04:02;;;;;;;1.17;1.17;;;16.70;99.90;;;17.05;nan;100167.50;5010910;28;21263;-64
2023/07/27 05:06:29;;;;;;;2.50;2.10;;;16.70;99.90;;;17.06;nan;100155.97;5008357;28;21272;-65
2023/07/27 05:08:56;;;;;;;1.50;1.17;;;16.70;99.90;;;17.03;nan;100158.94;5008413;28;20645;-64
2023/07/27 05:11:23;;;;;;;1.50;0.97;;;16.70;99.90;;;17.02;nan;100148.53;5009565;28;21074;-66
2023/07/27 05:13:51;;;;;;;1.73;1.60;;;16.70;99.90;;;16.99;nan;100140.97;5006098;28;21209;-64
2023/07/27 05:16:18;;;;;;;3.10;1.60;;;16.60;99.90;;;16.99;nan;100147.03;5009762;28;20718;-65
2023/07/27 05:18:45;;;;;;;2.17;1.77;;;16.60;99.90;;;17.03;nan;100147.56;5003272;28;20644;-65
2023/07/27 05:21:11;;;;;;;1.60;1.50;;;16.70;99.90;;;17.03;nan;100140.50;5011397;28;20660;-65
2023/07/27 05:23:40;;;;;;;12.33;1.60;;;16.70;99.90;;;17.08;nan;100139.97;5008222;28;20627;-64
2023/07/27 05:26:07;;;;;;;1.20;1.20;;;16.70;99.90;;;17.13;nan;100142.94;5006765;28;20652;-64
2023/07/27 05:28:34;;;;;;;1.27;1.20;;;16.80;99.90;;;17.13;nan;100147.38;5005870;28;20629;-64
2023/07/27 05:31:01;;;;;;;1.43;1.23;;;16.80;99.90;;;17.12;nan;100149.22;5003807;28;20625;-64
2023/07/27 05:33:28;;;;;;;2.07;1.73;;;16.80;99.90;;;17.16;nan;100147.06;5003365;28;20639;-62
2023/07/27 05:35:55;;;;;;;2.70;1.63;;;16.80;99.90;;;17.15;nan;100148.88;5001055;28;21071;-65
2023/07/27 05:38:22;;;;;;;1.27;1.23;;;16.80;99.90;;;17.12;nan;100149.22;5000773;28;20646;-65
2023/07/27 05:40:49;;;;;;;1.87;1.77;;;16.80;99.90;;;17.08;nan;100145.25;4990691;28;20638;-64
2023/07/27 05:43:16;;;;;;;2.30;1.63;;;16.70;99.90;;;17.06;nan;100139.31;4992089;28;21610;-64
2023/07/27 05:45:44;;;;;;;1.60;1.37;;;16.70;99.90;;;17.05;nan;100137.69;4984526;28;20674;-65
2023/07/27 05:48:11;;;;;;;1.30;1.20;;;16.70;99.90;;;17.05;nan;100135.88;4982687;28;20650;-63
2023/07/27 05:50:38;;;;;;;3.10;1.50;;;16.70;99.90;;;17.08;nan;100127.63;4989202;28;21393;-64
2023/07/27 05:53:05;;;;;;;1.13;1.13;;;16.70;99.90;;;17.06;nan;100132.25;4990217;28;20677;-64
2023/07/27 05:55:32;;;;;;;1.03;1.03;;;16.70;99.90;;;17.05;nan;100130.59;4993242;28;20728;-64
2023/07/27 05:57:59;;;;;;;1.27;1.17;;;16.70;99.90;;;17.06;nan;100126.13;4994041;28;21230;-65
2023/07/27 06:00:36;;;;;;;1.60;1.27;;;16.70;99.90;;;17.08;nan;100130.25;4991567;28;20642;-65
2023/07/27 06:03:03;;;;;;;2.30;1.30;;;16.70;99.90;;;17.11;nan;100118.56;4991374;28;21042;-65
2023/07/27 06:05:30;;;;;;;1.40;1.30;;;16.70;99.90;;;17.18;nan;100126.66;4998661;28;20650;-65
2023/07/27 06:07:57;;;;;;;3.73;1.43;;;16.80;99.90;;;17.18;nan;100113.47;5007208;28;20645;-65
2023/07/27 06:10:24;;;;;;;1.33;1.23;;;16.80;99.90;;;17.18;nan;100124.00;4988350;28;21019;-65
2023/07/27 06:12:51;;;;;;;1.60;1.50;;;16.80;99.90;;;17.15;nan;100106.72;4995839;28;20677;-64
2023/07/27 06:15:18;;;;;;;1.67;1.57;;;16.80;99.90;;;17.23;nan;100105.91;4993065;28;20634;-65
2023/07/27 06:17:45;;;;;;;1.50;1.40;;;16.80;99.90;;;17.30;nan;100107.69;4987638;28;20991;-65
2023/07/27 06:20:12;;;;;;;2.00;1.37;;;16.90;99.90;;;17.31;nan;100105.88;4990241;28;20713;-65
2023/07/27 06:22:39;;;;;;;1.27;1.20;;;17.00;99.90;;;17.34;nan;100116.09;4989994;28;20638;-65
2023/07/27 06:25:06;;;;;;;1.70;1.60;;;17.00;99.90;;;17.37;nan;100105.22;4987395;28;20649;-65
2023/07/27 06:27:33;;;;;;;1.80;1.70;;;17.00;99.90;;;17.35;nan;100105.41;4989476;28;20666;-64
2023/07/27 06:30:00;;;;;;;1.27;1.17;;;17.00;99.90;;;17.36;nan;100108.84;4989398;28;20651;-65
2023/07/27 06:32:27;;;;;;;2.03;1.47;;;17.00;99.90;;;17.41;nan;100110.00;4993181;28;20670;-64
2023/07/27 06:34:54;;;;;;;2.70;1.40;;;17.00;99.90;;;17.41;nan;100104.72;4994873;28;20669;-64
2023/07/27 06:37:21;;;;;;;1.00;1.00;;;17.10;99.90;;;17.32;nan;100100.44;4995640;28;20677;-63
2023/07/27 06:39:48;;;;;;;1.47;1.37;;;17.00;99.90;;;17.29;nan;100099.97;5004573;28;21017;-64
2023/07/27 06:42:15;;;;;;;0.73;0.73;;;17.00;99.90;;;17.21;nan;100102.56;4992990;28;20663;-64
2023/07/27 06:44:42;;;;;;;1.30;1.23;;;16.90;99.90;;;17.15;nan;100097.97;4997882;28;21055;-65
2023/07/27 06:47:09;;;;;;;1.03;1.00;;;16.80;99.90;;;17.10;nan;100100.28;4995426;28;20680;-65
2023/07/27 06:49:36;;;;;;;1.73;1.63;;;16.70;99.90;;;17.09;nan;100096.81;4992403;28;21092;-64
2023/07/27 06:52:04;;;;;;;0.67;0.67;;;16.70;99.90;;;17.12;nan;100095.69;4999556;28;20680;-65
2023/07/27 06:54:31;;;;;;;1.57;1.57;;;16.80;99.90;;;17.08;nan;100094.38;4983785;28;20653;-65
2023/07/27 06:56:58;;;;;;;1.27;1.13;;;16.70;99.90;;;17.05;nan;100098.97;4983876;28;20665;-64
2023/07/27 06:59:25;;;;;;;0.87;0.87;;;16.70;99.90;;;17.01;nan;100105.53;5002433;28;20632;-65
2023/07/27 07:01:57;;;;;;;1.30;1.30;;;16.70;99.90;;;16.99;nan;100094.34;4999374;28;20642;-64
2023/07/27 07:04:24;;;;;;;1.63;1.47;;;16.70;99.90;;;17.02;nan;100095.81;5007111;28;20645;-65
2023/07/27 07:06:51;;;;;;;1.30;1.20;;;16.60;99.90;;;17.00;nan;100093.38;4997042;28;21042;-63
2023/07/27 07:09:18;;;;;;;0.80;0.60;;;16.60;99.90;;;16.96;nan;100091.22;5007669;28;20640;-64
2023/07/27 07:11:45;;;;;;;1.33;1.23;;;16.60;99.90;;;16.98;nan;100097.97;4996414;28;20676;-64
2023/07/27 07:14:12;;;;;;;1.60;1.20;;;16.60;99.90;;;17.01;nan;100092.34;5000781;28;20641;-65
2023/07/27 07:16:39;;;;;;;2.80;1.50;;;16.70;99.90;;;17.03;nan;100094.84;4978985;28;20666;-62
2023/07/27 07:19:06;;;;;;;2.17;1.50;;;16.70;99.90;;;17.00;nan;100111.81;4979967;28;21741;-63
2023/07/27 07:21:33;;;;;;;1.60;1.50;;;16.70;99.90;;;16.98;nan;100099.78;4989873;28;20645;-65
2023/07/27 07:24:00;;;;;;;1.70;1.53;;;16.70;99.90;;;16.96;nan;100099.13;4988091;28;20740;-65
2023/07/27 07:26:27;;;;;;;0.70;0.70;;;16.60;99.90;;;16.95;nan;100103.56;4987442;28;20666;-65
2023/07/27 07:28:54;;;;;;;1.60;1.47;;;16.60;99.90;;;16.96;nan;100097.31;4993736;28;20664;-64
2023/07/27 07:31:20;;;;;;;1.43;1.33;;;16.60;99.90;;;16.94;nan;100098.47;4986221;28;20643;-65
2023/07/27 07:33:48;;;;;;;1.10;1.10;;;16.60;99.90;;;16.95;nan;100092.22;4994755;28;20708;-65
2023/07/27 07:36:15;;;;;;;1.30;1.30;;;16.60;99.90;;;16.99;nan;100086.44;4985098;28;20662;-65
2023/07/27 07:38:42;;;;;;;1.13;1.00;;;16.60;99.90;;;16.98;nan;100087.44;4983860;28;21060;-66
2023/07/27 07:41:09;;;;;;;1.70;1.47;;;16.60;99.90;;;16.99;nan;100085.63;5000383;28;20642;-64
2023/07/27 07:43:36;;;;;;;0.97;0.97;;;16.60;99.90;;;16.96;nan;100085.94;4991859;28;20649;-66
2023/07/27 07:46:03;;;;;;;6.90;1.67;;;16.60;99.90;;;16.94;nan;100086.13;4987302;28;21034;-65
2023/07/27 07:48:30;;;;;;;1.33;1.23;;;16.60;99.90;;;16.94;nan;100094.03;5008538;28;21047;-66
2023/07/27 07:50:57;;;;;;;2.20;1.90;;;16.60;99.90;;;16.87;nan;100087.75;5006910;28;20637;-65
2023/07/27 07:53:24;;;;;;;1.53;1.43;;;16.60;99.90;;;16.92;nan;100082.81;5001005;28;20681;-64
2023/07/27 07:56:00;;;;;;;1.60;1.50;;;16.60;99.90;;;16.89;nan;100083.13;4987879;28;21087;-64
2023/07/27 07:58:28;;;;;;;1.17;1.07;;;16.60;99.90;;;16.88;nan;100080.69;5002811;28;20642;-65
2023/07/27 08:00:54;;;;;;;2.47;1.87;;;16.50;99.90;;;16.93;nan;100075.72;5007743;28;20637;-64
2023/07/27 08:03:22;;;;;;;1.60;1.20;;;16.60;99.90;;;16.93;nan;100076.56;5008274;28;20652;-65
2023/07/27 08:05:48;;;;;;;2.43;1.53;;;16.60;99.90;;;16.91;nan;100072.44;5003326;28;20668;-65
2023/07/27 08:08:16;;;;;;;1.80;1.70;;;16.60;99.90;;;16.85;nan;100071.28;4995104;28;20638;-64
2023/07/27 08:10:43;;;;;;;2.33;1.90;;;16.50;99.90;;;16.81;nan;100069.97;5004739;28;20646;-65
2023/07/27 08:13:10;;;;;;;1.30;1.20;;;16.50;99.90;;;16.85;nan;100065.19;5005467;28;20672;-65
2023/07/27 08:15:37;;;;;;;1.13;1.03;;;16.50;99.90;;;16.89;nan;100055.97;5011325;28;20658;-65
2023/07/27 08:18:04;;;;;;;1.30;1.20;;;16.50;99.90;;;16.86;nan;100061.56;5008392;28;20648;-65
2023/07/27 08:20:31;;;;;;;1.20;1.10;;;16.50;99.90;;;16.84;nan;100059.09;4992321;28;20644;-64
2023/07/27 08:22:58;;;;;;;1.57;1.50;;;16.50;99.90;;;16.82;nan;100050.53;4999200;28;20626;-65
2023/07/27 08:25:25;;;;;;;1.47;1.27;;;16.50;99.90;;;16.85;nan;100044.94;4998459;28;20748;-64
2023/07/27 08:27:52;;;;;;;0.90;0.90;;;16.50;99.90;;;16.83;nan;100046.91;5012243;28;20710;-67
2023/07/27 08:30:20;;;;;;;2.13;1.97;;;16.50;99.90;;;16.88;nan;100039.34;5009961;28;20641;-64
2023/07/27 08:32:47;;;;;;;2.80;1.50;;;16.60;99.90;;;16.90;nan;100042.63;5007557;28;21295;-65
2023/07/27 08:35:14;;;;;;;1.67;1.37;;;16.60;99.90;;;16.89;nan;100040.97;5005158;28;20641;-63
2023/07/27 08:37:41;;;;;;;1.67;1.57;;;16.60;99.90;;;16.88;nan;100047.25;5005797;28;20638;-63
2023/07/27 08:40:09;;;;;;;2.27;1.97;;;16.50;99.90;;;16.81;nan;100043.63;5003743;28;20641;-64
2023/07/27 08:42:37;;;;;;;1.70;1.60;;;16.50;99.90;;;16.76;nan;100045.91;5010140;28;20641;-64
2023/07/27 08:45:05;;;;;;;1.17;0.90;;;16.50;99.90;;;16.72;nan;100041.13;5001733;28;20641;-62
2023/07/27 08:47:34;;;;;;;1.50;1.40;;;16.40;99.90;;;16.60;nan;100039.81;4990291;28;20668;-64
2023/07/27 08:50:03;;;;;;;1.60;1.50;;;16.30;99.90;;;16.58;nan;100042.63;4991091;28;20635;-64
2023/07/27 08:52:30;;;;;;;0.60;0.60;;;16.30;99.90;;;16.55;nan;100037.66;5001629;28;20681;-63
2023/07/27 08:54:58;;;;;;;0.60;0.60;;;16.30;99.90;;;16.49;nan;100043.56;4989548;28;20640;-63
2023/07/27 08:57:25;;;;;;;1.00;1.00;;;16.20;99.90;;;16.50;nan;100034.72;4995541;28;20657;-65
2023/07/27 08:59:52;;;;;;;2.17;2.07;;;16.20;99.90;;;16.56;nan;100034.06;5002897;28;20661;-64
2023/07/27 09:02:20;;;;;;;13.63;1.37;;;16.30;99.90;;;16.59;nan;100035.53;5009867;28;20644;-64
2023/07/27 09:04:47;;;;;;;1.60;1.10;;;16.30;99.90;;;16.67;nan;100031.09;5001953;28;21219;-63
2023/07/27 09:07:14;;;;;;;0.87;0.87;;;16.40;99.90;;;16.72;nan;100027.97;4997919;28;21571;-64
2023/07/27 09:09:41;;;;;;;0.50;0.50;;;16.40;99.90;;;16.80;nan;100031.41;4984254;28;20696;-64
2023/07/27 09:12:08;;;;;;;1.00;0.80;;;16.50;99.90;;;16.91;nan;100011.81;4988895;28;20646;-64
2023/07/27 09:14:39;;;;;;;1.37;1.27;;;16.60;99.90;;;17.01;nan;100018.56;5006258;28;20633;-64
2023/07/27 09:17:07;;;;;;;0.70;0.70;;;16.70;99.90;;;17.14;nan;100023.34;4998479;28;20665;-64
2023/07/27 09:19:38;;;;;;;1.67;1.47;;;16.80;99.90;;;17.22;nan;100020.69;5000094;28;21021;-64
2023/07/27 09:22:05;;;;;;;1.27;1.03;;;16.90;99.90;;;17.23;nan;100016.25;4997369;28;20649;-65
2023/07/27 09:24:33;;;;;;;0.60;0.60;;;16.90;99.90;;;17.27;nan;100017.56;5008345;28;20629;-64
2023/07/27 09:27:07;;;;;;;5.07;1.53;;;16.90;99.90;;;17.31;nan;100019.72;4992953;28;20665;-62
2023/07/27 09:29:34;;;;;;;1.07;1.00;;;17.00;99.90;;;17.28;nan;100013.94;4988979;28;20638;-64
2023/07/27 09:32:01;;;;;;;0.73;0.73;;;17.00;99.90;;;17.26;nan;100014.09;4996630;28;20635;-63
2023/07/27 09:34:30;;;;;;;2.30;1.53;;;17.00;99.90;;;17.26;nan;100008.00;5004325;28;20695;-64
2023/07/27 09:37:03;;;;;;;2.60;0.83;;;17.00;99.90;;;17.30;nan;100001.41;5009346;28;21036;-63
2023/07/27 09:39:33;;;;;;;1.47;1.40;;;17.00;99.90;;;17.31;nan;100016.25;4991242;28;20642;-68
2023/07/27 09:42:01;;;;;;;1.80;1.20;;;17.00;99.90;;;17.30;nan;100017.22;4995090;28;21250;-64
2023/07/27 09:44:28;;;;;;;0.60;0.53;;;17.00;99.90;;;17.36;nan;100016.53;4990388;28;20643;-64
2023/07/27 09:46:54;;;;;;;1.03;0.93;;;17.10;99.90;;;17.37;nan;100011.13;5003463;28;20666;-64
2023/07/27 09:49:22;;;;;;;2.87;1.20;;;17.10;99.90;;;17.40;nan;100005.50;4990605;28;20674;-64
2023/07/27 09:51:50;;;;;;;2.77;1.47;;;17.10;99.90;;;17.42;nan;99997.44;5000768;28;20649;-64
2023/07/27 09:54:19;;;;;;;0.73;0.73;;;17.10;99.90;;;17.35;nan;100007.81;4988651;28;21072;-62
2023/07/27 09:56:46;;;;;;;1.33;1.23;;;17.10;99.90;;;17.33;nan;99999.25;4984349;28;20682;-63
2023/07/27 09:59:13;;;;;;;2.93;1.53;;;17.00;99.90;;;17.39;nan;100003.03;4993987;28;20633;-63
2023/07/27 10:01:41;;;;;;;0.80;0.77;;;17.10;99.90;;;17.40;nan;100002.84;5001607;28;21304;-64
2023/07/27 10:04:08;;;;;;;1.00;0.90;;;17.10;99.90;;;17.41;nan;100004.50;4992119;28;20650;-67
2023/07/27 10:06:35;;;;;;;1.00;0.90;;;17.10;99.90;;;17.44;nan;100006.78;4980350;28;20673;-64
2023/07/27 10:09:18;;;;;;;1.30;1.30;;;17.10;99.90;;;17.45;nan;100007.63;4991346;28;20646;-66
2023/07/27 10:12:04;;;;;;;0.93;0.93;;;17.10;99.90;;;17.47;nan;99997.72;5003829;28;20629;-64
2023/07/27 10:14:32;;;;;;;1.37;1.20;;;17.10;99.90;;;17.44;nan;99995.44;5006028;28;20673;-64
2023/07/27 10:17:08;;;;;;;1.47;1.33;;;17.10;99.90;;;17.49;nan;99986.03;4994436;28;20671;-65
2023/07/27 10:19:43;;;;;;;0.90;0.90;;;17.20;99.90;;;17.54;nan;99990.81;4999218;28;21022;-65
2023/07/27 10:22:16;;;;;;;1.60;1.50;;;17.20;99.90;;;17.58;nan;99992.13;5001329;28;20640;-64
2023/07/27 10:24:47;;;;;;;1.10;1.10;;;17.30;99.90;;;17.60;nan;99983.06;4998968;28;20644;-65
2023/07/27 10:27:14;;;;;;;2.30;1.60;;;17.30;99.90;;;17.58;nan;99990.31;5000229;28;20658;-63
2023/07/27 10:29:53;;;;;;;1.37;1.30;;;17.30;99.90;;;17.57;nan;99985.19;5007419;28;21270;-64
2023/07/27 10:32:21;;;;;;;1.20;1.20;;;17.30;99.90;;;17.56;nan;99986.19;5001116;28;20693;-64